Terminal Aerodrome Forecast
Issued by NWS Jackson, MS

Home | Current Version | Previous Version | Text Only | Print | Product List | Glossary On
Versions: 1 2 3 4 5 6 7 8 9 10 11 12 13 14
000
FTUS44 KJAN 211725
TAFJAN
TAF
KJAN 211725Z 2118/2218 14011KT P6SM SCT050 SCT120
     FM220800 15014G22KT P6SM VCSH BKN015 OVC025
     FM221300 16011KT 5SM SHRA VCTS OVC007CB
     FM221600 17010KT 6SM SHRA VCTS OVC015CB=

USA.gov is the U.S. government's official web portal to all federal, state and local government web resources and services.